Flight Track Log - Related Links

Times and Time Zones

All times are in EDT time to prevent confusion due to time zone crossing. See the N317FL flight status page for this flight to view local times or setup timezone preferences in your user account.


Time Position Orientation Groundspeed Altitude Reporting Facility
EDT Latitude Longitude Course Direction KTS MPH feet Rate Location/Type
Wed 07:43:42 AM 40.0390 -105.2000 90° East 152 175 6,300  Level FlightAware ADS-B
Wed 07:44:07 AM 40.0390 -105.1750 90° East 178 205 7,100 2,182 Climbing FlightAware ADS-B
Wed 07:44:37 AM 40.0370 -105.1390 94° East 203 234 8,300 2,720 Climbing FlightAware ADS-B
Wed 07:45:22 AM 40.0400 -105.0820 86° East 229 264 10,500 3,035 Climbing FlightAware ADS-B
Wed 07:46:02 AM 40.0480 -105.0260 79° East 246 283 12,600 3,106 Climbing FlightAware ADS-B
Wed 07:46:47 AM 40.0570 -104.9550 81° East 268 308 14,900 3,240 Climbing FlightAware ADS-B
Wed 07:46:52 AM 40.0581 -104.9440 83° East 271 312 15,300 3,000 Climbing FlightAware ADS-B
Wed 07:47:23 AM 40.0642 -104.8920 81° East 289 333 16,700 2,559 Climbing FlightAware ADS-B
Wed 07:48:00 AM 40.0718 -104.8270 81° East 309 356 18,200 2,687 Climbing FlightAware ADS-B
Wed 07:48:30 AM 40.0783 -104.7700 82° East 316 364 19,700 3,000 Climbing FlightAware ADS-B
Wed 07:48:54 AM 40.0836 -104.7240 81° East 318 366 20,900 2,836 Climbing FlightAware ADS-B
Wed 07:49:25 AM 40.0901 -104.6660 82° East 317 365 22,300 2,656 Climbing FlightAware ADS-B
Wed 07:49:55 AM 40.0967 -104.6090 81° East 323 372 23,600 2,500 Climbing FlightAware ADS-B
Wed 07:50:25 AM 40.1034 -104.5500 82° East 330 380 24,800 2,300 Climbing FlightAware ADS-B
Wed 07:50:55 AM 40.1101 -104.4900 82° East 332 382 25,900 2,262 Climbing FlightAware ADS-B
Wed 07:51:26 AM 40.1168 -104.4300 82° East 336 387 27,100 1,967 Climbing FlightAware ADS-B
Wed 07:51:56 AM 40.1237 -104.3680 82° East 349 402 27,900 1,655 Climbing FlightAware ADS-B
Wed 07:52:24 AM 40.1304 -104.3070 82° East 360 414 28,700 1,627 Climbing FlightAware ADS-B
Wed 07:52:55 AM 40.1378 -104.2410 82° East 370 426 29,500 1,574 Climbing FlightAware ADS-B
Wed 07:53:25 AM 40.1452 -104.1730 82° East 380 437 30,300 1,800 Climbing FlightAware ADS-B
Wed 07:53:55 AM 40.1527 -104.1050 82° East 385 443 31,300 2,200 Climbing FlightAware ADS-B
Wed 07:54:25 AM 40.1603 -104.0350 82° East 379 436 32,500 2,361 Climbing FlightAware ADS-B
Wed 07:54:56 AM 40.1676 -103.9670 82° East 371 427 33,700 2,361 Climbing FlightAware ADS-B
Wed 07:55:26 AM 40.1746 -103.9010 82° East 360 414 34,900 2,300 Climbing FlightAware ADS-B
Wed 07:55:56 AM 40.1815 -103.8370 82° East 351 404 36,000 1,800 Climbing FlightAware ADS-B
Wed 07:56:26 AM 40.1883 -103.7740 82° East 352 405 36,700 1,200 Climbing FlightAware ADS-B
Wed 07:56:56 AM 40.1951 -103.7090 82° East 359 413 37,200 984 Climbing FlightAware ADS-B
Wed 07:57:27 AM 40.2021 -103.6430 82° East 364 419 37,700 1,065 Climbing FlightAware ADS-B
Wed 07:57:58 AM 40.2091 -103.5760 82° East 370 426 38,300 1,082 Climbing FlightAware ADS-B
Wed 07:58:28 AM 40.2160 -103.5090 82° East 371 427 38,800 1,000 Climbing FlightAware ADS-B
Wed 07:58:58 AM 40.2230 -103.4410 82° East 372 428 39,300 1,000 Climbing FlightAware ADS-B
Wed 07:59:28 AM 40.2299 -103.3740 82° East 373 429 39,800 1,000 Climbing FlightAware ADS-B
Wed 07:59:58 AM 40.2368 -103.3070 82° East 371 427 40,300 1,082 Climbing FlightAware ADS-B
Wed 08:00:29 AM 40.2436 -103.2400 82° East 366 421 40,900 1,219 Climbing FlightAware ADS-B
Wed 08:01:02 AM 40.2509 -103.1680 82° East 361 415 41,600 1,143 Climbing FlightAware ADS-B
Wed 08:01:32 AM 40.2574 -103.1020 83° East 359 413 42,100 968 Climbing FlightAware ADS-B
Wed 08:02:04 AM 40.2642 -103.0350 82° East 355 409 42,600 968 Climbing FlightAware ADS-B
Wed 08:02:34 AM 40.2705 -102.9710 83° East 351 404 43,100 1,000 Climbing FlightAware ADS-B
Wed 08:03:04 AM 40.2767 -102.9070 83° East 346 398 43,600 700 Climbing FlightAware ADS-B
Wed 08:03:34 AM 40.2829 -102.8450 83° East 348 400 43,800 492 Climbing FlightAware ADS-B
Wed 08:04:05 AM 40.2890 -102.7810 83° East 350 403 44,100 492 Climbing FlightAware ADS-B
Wed 08:04:35 AM 40.2952 -102.7180 83° East 351 404 44,300 300 Climbing FlightAware ADS-B
Wed 08:05:05 AM 40.3012 -102.6540 83° East 354 407 44,400 200 Climbing FlightAware ADS-B
Wed 08:05:35 AM 40.3076 -102.5890 83° East 361 415 44,500 200 Climbing FlightAware ADS-B
Wed 08:06:05 AM 40.3138 -102.5230 83° East 369 425 44,600 98 Climbing FlightAware ADS-B
Wed 08:06:36 AM 40.3202 -102.4550 83° East 376 433 44,600 98 Level FlightAware ADS-B
Wed 08:07:06 AM 40.3267 -102.3860 83° East 381 438 44,700 200 Climbing FlightAware ADS-B
Wed 08:07:36 AM 40.3333 -102.3160 83° East 387 445 44,800 98 Climbing FlightAware ADS-B
Wed 08:08:07 AM 40.3399 -102.2450 83° East 393 452 44,800 98 Level FlightAware ADS-B
Wed 08:08:37 AM 40.3465 -102.1730 83° East 399 459 44,900 100 Climbing FlightAware ADS-B
Wed 08:09:07 AM 40.3531 -102.1010 83° East 404 465 44,900 100 Level FlightAware ADS-B
Wed 08:09:37 AM 40.3599 -102.0260 83° East 409 471 45,000 98 Climbing FlightAware ADS-B
Wed 08:10:08 AM 40.3666 -101.9520 83° East 412 474 45,000  Level FlightAware ADS-B
Wed 08:10:38 AM 40.3732 -101.8770 83° East 414 476 45,000  Level FlightAware ADS-B
Wed 08:11:08 AM 40.3801 -101.8010 83° East 415 478 45,000  Level FlightAware ADS-B
Wed 08:11:38 AM 40.3866 -101.7260 83° East 416 479 45,000  Level FlightAware ADS-B
Wed 08:12:09 AM 40.3932 -101.6500 83° East 418 481 45,000  Level FlightAware ADS-B
Wed 08:12:39 AM 40.3998 -101.5740 83° East 419 482 45,000  Level FlightAware ADS-B
Wed 08:13:10 AM 40.4065 -101.4970 83° East 420 483 45,000  Level FlightAware ADS-B
Wed 08:13:40 AM 40.4130 -101.4200 84° East 420 483 45,000  Level FlightAware ADS-B
Wed 08:14:10 AM 40.4195 -101.3430 84° East 421 484 45,000  Level FlightAware ADS-B
Wed 08:14:41 AM 40.4260 -101.2670 84° East 421 484 45,000  Level FlightAware ADS-B
Wed 08:15:11 AM 40.4323 -101.1900 84° East 421 484 45,000  Level FlightAware ADS-B
Wed 08:15:41 AM 40.4387 -101.1130 84° East 421 484 45,000  Level FlightAware ADS-B
Wed 08:16:20 AM 40.4467 -101.0150 84° East 422 486 45,000  Level FlightAware ADS-B
Wed 08:16:50 AM 40.4529 -100.9390 84° East 421 484 45,000  Level FlightAware ADS-B
Wed 08:17:15 AM 40.4589 -100.8750 83° East 420 483 45,000  Level FlightAware ADS-B
Wed 08:17:45 AM 40.4693 -100.8000 80° East 419 482 45,000  Level FlightAware ADS-B
Wed 08:18:15 AM 40.4799 -100.7240 80° East 418 481 45,000  Level FlightAware ADS-B
Wed 08:18:45 AM 40.4898 -100.6490 80° East 419 482 45,000  Level FlightAware ADS-B
Wed 08:19:16 AM 40.4996 -100.5730 80° East 418 481 45,000  Level FlightAware ADS-B
Wed 08:19:34 AM 40.5036 -100.5336 80° East 418 481 45,000  Level Denver Center
Wed 08:20:35 AM 40.5222 -100.3906 80° East 419 482 45,000  Level Denver Center
Wed 08:21:35 AM 40.5400 -100.2486 81° East 415 478 45,000  Level Denver Center
Wed 08:22:36 AM 40.5603 -100.0819 81° East 416 479 45,000  Level Denver Center
Wed 08:23:37 AM 40.5786 -99.9403 80° East 414 476 45,000  Level Denver Center
Wed 08:24:37 AM 40.5967 -99.7883 81° East 415 478 45,000  Level Denver Center
Wed 08:25:38 AM 40.6150 -99.6400 81° East 414 476 45,000  Level Denver Center
Wed 08:26:39 AM 40.6325 -99.4914 81° East 411 473 45,000  Level Denver Center
Wed 08:27:39 AM 40.6492 -99.3422 82° East 413 475 45,000  Level Denver Center
Wed 08:28:40 AM 40.6672 -99.1933 81° East 414 476 45,000  Level Denver Center
Wed 08:29:09 AM 40.6781 -99.1050 81° East 413 475 45,000  Level Minneapolis Center
Wed 08:30:10 AM 40.6953 -98.9547 81° East 415 478 45,000  Level Minneapolis Center
Wed 08:31:12 AM 40.7108 -98.8044 82° East 416 479 45,000  Level Minneapolis Center
Wed 08:32:14 AM 40.7283 -98.6539 81° East 418 481 45,000  Level Minneapolis Center
Wed 08:33:15 AM 40.7444 -98.5031 82° East 419 482 45,000  Level Minneapolis Center
Wed 08:34:17 AM 40.7614 -98.3525 82° East 419 482 45,000  Level Minneapolis Center
Wed 08:35:18 AM 40.7772 -98.2033 82° East 415 478 45,000  Level Minneapolis Center
Wed 08:36:20 AM 40.7958 -98.0239 82° East 414 476 45,000  Level Minneapolis Center
Wed 08:37:22 AM 40.8114 -97.8742 82° East 414 476 45,000  Level Minneapolis Center
Wed 08:38:23 AM 40.8275 -97.7228 82° East 416 479 45,000  Level Minneapolis Center
Wed 08:39:25 AM 40.8425 -97.5725 82° East 415 478 45,000  Level Minneapolis Center
Wed 08:40:38 AM 40.8575 -97.4225 82° East 414 476 45,000  Level Minneapolis Center
Wed 08:41:40 AM 40.8758 -97.2364 83° East 414 476 45,000  Level Minneapolis Center
Wed 08:42:42 AM 40.8903 -97.0858 83° East 414 476 45,000  Level Minneapolis Center
Wed 08:43:43 AM 40.9042 -96.9358 83° East 414 476 45,000  Level Minneapolis Center
Wed 08:44:45 AM 40.9192 -96.7856 82° East 413 475 45,000  Level Minneapolis Center
Wed 08:50:42 AM 41.0070 -96.1340 82° East 45,000  Level FlightAware ADS-B
Wed 08:50:52 AM 41.0100 -96.1110 80° East 419 482 45,000  Level FlightAware ADS-B
Wed 08:51:32 AM 41.0230 -96.0130 80° East 419 482 45,000  Level FlightAware ADS-B
Wed 08:52:12 AM 41.0340 -95.9270 80° East 419 482 45,000  Level FlightAware ADS-B
Wed 08:52:52 AM 41.0460 -95.8410 79° East 419 482 45,000  Level FlightAware ADS-B
Wed 08:53:42 AM 41.0600 -95.7340 80° East 419 482 45,000  Level FlightAware ADS-B
Wed 08:54:22 AM 41.0720 -95.6470 80° East 419 482 45,000  Level FlightAware ADS-B
Wed 08:55:02 AM 41.0830 -95.5610 80° East 419 482 45,000  Level FlightAware ADS-B
Wed 08:55:42 AM 41.0950 -95.4750 79° East 419 482 45,000  Level FlightAware ADS-B
Wed 08:56:27 AM 41.1550 -94.9820 81° East 423 487 45,000  Level FlightAware ADS-B
Wed 08:57:12 AM 41.1700 -94.8630 80° East 424 488 45,000  Level FlightAware ADS-B
Wed 08:57:52 AM 41.1820 -94.7590 81° East 424 488 45,000  Level FlightAware ADS-B
Wed 08:58:37 AM 41.1960 -94.6460 81° East 425 489 45,000  Level FlightAware ADS-B
Wed 08:59:17 AM 41.2080 -94.5430 81° East 425 489 45,000  Level FlightAware ADS-B
Wed 08:59:57 AM 41.2210 -94.4410 80° East 425 489 45,000  Level FlightAware ADS-B
Wed 09:00:37 AM 41.2410 -94.3400 75° East 425 489 45,000  Level FlightAware ADS-B
Wed 09:01:22 AM 41.2630 -94.2220 76° East 425 489 45,000  Level FlightAware ADS-B
Wed 09:02:02 AM 41.2820 -94.1210 76° East 425 489 45,000  Level FlightAware ADS-B
Wed 09:02:47 AM 41.3020 -94.0100 76° East 423 487 45,000  Level FlightAware ADS-B
Wed 09:03:27 AM 41.3200 -93.9130 76° East 424 488 45,000  Level FlightAware ADS-B
Wed 09:04:12 AM 41.3400 -93.8030 76° East 424 488 45,000  Level FlightAware ADS-B
Wed 09:04:47 AM 41.3570 -93.7120 76° East 424 488 45,000  Level FlightAware ADS-B
Wed 09:05:37 AM 41.3810 -93.5780 77° East 424 488 45,000  Level FlightAware ADS-B
Wed 09:06:17 AM 41.3990 -93.4760 77° East 423 487 45,000  Level FlightAware ADS-B
Wed 09:07:02 AM 41.4200 -93.3610 76° East 423 487 45,000  Level FlightAware ADS-B
Wed 09:07:42 AM 41.4380 -93.2610 76° East 423 487 45,000  Level FlightAware ADS-B
Wed 09:08:22 AM 41.4560 -93.1560 77° East 422 486 45,000  Level FlightAware ADS-B
Wed 09:09:07 AM 41.4750 -93.0470 77° East 422 486 45,000  Level FlightAware ADS-B
Wed 09:09:47 AM 41.4930 -92.9450 77° East 423 487 45,000  Level FlightAware ADS-B
Wed 09:10:27 AM 41.5110 -92.8450 76° East 422 486 45,000  Level FlightAware ADS-B
Wed 09:11:12 AM 41.5310 -92.7280 77° East 424 488 45,000  Level FlightAware ADS-B
Wed 09:11:52 AM 41.5490 -92.6240 77° East 424 488 45,000  Level FlightAware ADS-B
Wed 09:12:37 AM 41.5680 -92.5120 77° East 424 488 45,000  Level FlightAware ADS-B
Wed 09:13:17 AM 41.5850 -92.4110 77° East 424 488 45,000  Level FlightAware ADS-B
Wed 09:13:57 AM 41.6020 -92.3100 77° East 424 488 45,000  Level FlightAware ADS-B
Wed 09:14:42 AM 41.6220 -92.1920 77° East 425 489 45,000  Level FlightAware ADS-B
Wed 09:15:22 AM 41.6390 -92.0880 78° East 423 487 45,000  Level FlightAware ADS-B
Wed 09:16:07 AM 41.6570 -91.9790 78° East 423 487 45,000  Level FlightAware ADS-B
Wed 09:16:47 AM 41.6750 -91.8740 77° East 423 487 45,000  Level FlightAware ADS-B
Wed 09:17:27 AM 41.6910 -91.7720 78° East 423 487 45,000  Level FlightAware ADS-B
Wed 09:18:12 AM 41.7110 -91.6540 77° East 423 487 45,000  Level FlightAware ADS-B
Wed 09:18:52 AM 41.7260 -91.5600 78° East 423 487 45,000  Level FlightAware ADS-B
Wed 09:19:37 AM 41.7450 -91.4410 78° East 423 487 45,000  Level FlightAware ADS-B
Wed 09:20:12 AM 41.7590 -91.3530 78° East 424 488 45,000  Level FlightAware ADS-B
Wed 09:20:52 AM 41.7750 -91.2500 78° East 424 488 45,000  Level FlightAware ADS-B
Wed 09:21:27 AM 41.7900 -91.1570 78° East 424 488 45,000  Level FlightAware ADS-B
Wed 09:22:07 AM 41.8010 -91.0520 82° East 425 489 45,000  Level FlightAware ADS-B
Wed 09:22:52 AM 41.8110 -90.9340 83° East 424 488 45,000  Level FlightAware ADS-B
Wed 09:23:32 AM 41.8200 -90.8340 83° East 425 489 45,000  Level FlightAware ADS-B
Wed 09:24:12 AM 41.8290 -90.7240 84° East 424 488 45,000  Level FlightAware ADS-B
Wed 09:24:57 AM 41.8380 -90.6150 84° East 424 488 45,000  Level FlightAware ADS-B
Wed 09:25:37 AM 41.8470 -90.5050 84° East 424 488 45,000  Level FlightAware ADS-B
Wed 09:26:22 AM 41.8560 -90.3850 84° East 424 488 45,000  Level FlightAware ADS-B
Wed 09:27:02 AM 41.8650 -90.2800 83° East 424 488 45,000  Level FlightAware ADS-B
Wed 09:27:42 AM 41.8730 -90.1750 84° East 424 488 45,000  Level FlightAware ADS-B
Wed 09:28:27 AM 41.8820 -90.0620 84° East 424 488 45,000  Level FlightAware ADS-B
Wed 09:29:07 AM 41.8900 -89.9560 84° East 425 489 45,000  Level FlightAware ADS-B
Wed 09:29:47 AM 41.8970 -89.8530 85° East 424 488 45,000  Level FlightAware ADS-B
Wed 09:30:27 AM 41.9050 -89.7470 84° East 424 488 45,000  Level FlightAware ADS-B
Wed 09:31:17 AM 41.9150 -89.6130 84° East 423 487 45,000  Level FlightAware ADS-B
Wed 09:31:57 AM 41.9220 -89.5080 85° East 423 487 45,000  Level FlightAware ADS-B
Wed 09:32:42 AM 41.9300 -89.3930 85° East 423 487 45,000  Level FlightAware ADS-B
Wed 09:33:22 AM 41.9380 -89.2880 84° East 422 486 45,000  Level FlightAware ADS-B
Wed 09:33:52 AM 41.9430 -89.2120 85° East 423 487 45,000  Level FlightAware ADS-B
Wed 09:34:32 AM 41.9500 -89.1060 85° East 422 486 45,000  Level FlightAware ADS-B
Wed 09:35:17 AM 41.9580 -88.9940 84° East 423 487 45,000  Level FlightAware ADS-B
Wed 09:35:57 AM 41.9650 -88.8870 85° East 423 487 45,000  Level FlightAware ADS-B
Wed 09:36:37 AM 41.9720 -88.7830 85° East 424 488 45,000  Level FlightAware ADS-B
Wed 09:37:22 AM 41.9790 -88.6630 85° East 424 488 45,000  Level FlightAware ADS-B
Wed 09:38:02 AM 41.9860 -88.5570 85° East 424 488 45,000  Level FlightAware ADS-B
Wed 09:38:42 AM 41.9930 -88.4470 85° East 425 489 45,000  Level FlightAware ADS-B
Wed 09:39:27 AM 42.0000 -88.3310 85° East 425 489 45,000  Level FlightAware ADS-B
Wed 09:40:07 AM 42.0060 -88.2290 85° East 425 489 45,000  Level FlightAware ADS-B
Wed 09:40:52 AM 42.0130 -88.1090 85° East 425 489 45,000  Level FlightAware ADS-B
Wed 09:41:32 AM 42.0190 -88.0040 86° East 426 490 45,000  Level FlightAware ADS-B
Wed 09:42:17 AM 42.0260 -87.8890 85° East 426 490 45,000  Level FlightAware ADS-B
Wed 09:42:57 AM 42.0320 -87.7820 86° East 426 490 45,000  Level FlightAware ADS-B
Wed 09:43:37 AM 42.0380 -87.6760 86° East 427 491 45,000  Level FlightAware ADS-B
Wed 09:44:22 AM 42.0440 -87.5550 86° East 427 491 45,000  Level FlightAware ADS-B
Wed 09:45:02 AM 42.0500 -87.4570 85° East 428 493 45,000  Level FlightAware ADS-B
Wed 09:45:47 AM 42.0560 -87.3310 86° East 428 493 45,000  Level FlightAware ADS-B
Wed 09:46:22 AM 42.0610 -87.2480 85° East 427 491 45,000  Level FlightAware ADS-B
Wed 09:47:07 AM 42.0670 -87.1300 86° East 428 493 45,000  Level FlightAware ADS-B
Wed 09:47:47 AM 42.0720 -87.0250 86° East 427 491 45,000  Level FlightAware ADS-B
Wed 09:48:32 AM 42.0780 -86.8960 86° East 426 490 45,000  Level FlightAware ADS-B
Wed 09:49:17 AM 42.0840 -86.7750 86° East 426 490 45,000  Level FlightAware ADS-B
Wed 09:49:57 AM 42.0890 -86.6690 86° East 426 490 45,000  Level FlightAware ADS-B
Wed 09:50:37 AM 42.0940 -86.5600 86° East 426 490 45,000  Level FlightAware ADS-B
Wed 09:51:22 AM 42.0990 -86.4400 87° East 426 490 45,000  Level FlightAware ADS-B
Wed 09:52:02 AM 42.1040 -86.3370 86° East 425 489 45,000  Level FlightAware ADS-B
Wed 09:52:47 AM 42.1090 -86.2200 87° East 424 488 45,000  Level FlightAware ADS-B
Wed 09:53:27 AM 42.1130 -86.1130 87° East 423 487 45,000  Level FlightAware ADS-B
Wed 09:54:12 AM 42.1180 -85.9970 87° East 423 487 45,000  Level FlightAware ADS-B
Wed 09:54:52 AM 42.1220 -85.8880 87° East 422 486 45,000  Level FlightAware ADS-B
Wed 09:55:32 AM 42.1260 -85.7860 87° East 421 484 45,000  Level FlightAware ADS-B
Wed 09:56:17 AM 42.1310 -85.6660 87° East 420 483 45,000  Level FlightAware ADS-B
Wed 09:56:57 AM 42.1350 -85.5640 87° East 419 482 45,000  Level FlightAware ADS-B
Wed 09:57:42 AM 42.1390 -85.4510 87° East 419 482 45,000  Level FlightAware ADS-B
Wed 09:58:22 AM 42.1420 -85.3450 88° East 418 481 45,000  Level FlightAware ADS-B
Wed 09:59:02 AM 42.1460 -85.2390 87° East 418 481 45,000  Level FlightAware ADS-B
Wed 09:59:47 AM 42.1500 -85.1250 87° East 417 480 45,000  Level FlightAware ADS-B
Wed 10:00:22 AM 42.1530 -85.0310 88° East 417 480 45,000  Level FlightAware ADS-B
Wed 10:01:07 AM 42.1560 -84.9190 88° East 416 479 45,000  Level FlightAware ADS-B
Wed 10:01:52 AM 42.1600 -84.7980 87° East 416 479 45,000  Level FlightAware ADS-B
Wed 10:02:32 AM 42.1630 -84.7010 88° East 416 479 45,000  Level FlightAware ADS-B
Wed 10:03:17 AM 42.1660 -84.5850 88° East 415 478 45,000  Level FlightAware ADS-B
Wed 10:03:57 AM 42.1690 -84.4750 88° East 415 478 45,000  Level FlightAware ADS-B
Wed 10:04:37 AM 42.1720 -84.3710 88° East 416 479 45,000  Level FlightAware ADS-B
Wed 10:05:22 AM 42.1750 -84.2570 88° East 416 479 45,000  Level FlightAware ADS-B
Wed 10:05:57 AM 42.1770 -84.1660 88° East 416 479 45,000  Level FlightAware ADS-B
Wed 10:06:47 AM 42.1800 -84.0520 88° East 416 479 45,000  Level FlightAware ADS-B
Wed 10:07:27 AM 42.1830 -83.9340 88° East 416 479 45,000  Level FlightAware ADS-B
Wed 10:08:02 AM 42.1850 -83.8430 88° East 416 479 45,000  Level FlightAware ADS-B
Wed 10:08:47 AM 42.1870 -83.7320 89° East 417 480 45,000  Level FlightAware ADS-B
Wed 10:09:32 AM 42.1890 -83.6090 89° East 417 480 45,000  Level FlightAware ADS-B
Wed 10:10:37 AM 42.1920 -83.4390 89° East 418 481 45,000  Level FlightAware ADS-B
Wed 10:11:22 AM 42.1950 -83.3220 88° East 419 482 45,000  Level FlightAware ADS-B
Wed 10:12:07 AM 42.1960 -83.2080 89° East 419 482 45,000  Level FlightAware ADS-B
Wed 10:12:47 AM 42.1980 -83.0990 89° East 420 483 45,000  Level FlightAware ADS-B
Wed 10:13:32 AM 42.2000 -82.9790 89° East 421 484 45,000  Level FlightAware ADS-B
Wed 10:14:07 AM 42.2010 -82.8970 89° East 422 486 45,000  Level FlightAware ADS-B
Wed 10:14:52 AM 42.2020 -82.7830 89° East 422 486 45,000  Level FlightAware ADS-B
Wed 10:15:37 AM 42.2040 -82.6540 89° East 423 487 45,000  Level FlightAware ADS-B
Wed 10:16:17 AM 42.2050 -82.5550 89° East 423 487 45,000  Level FlightAware ADS-B
Wed 10:17:02 AM 42.2060 -82.4360 89° East 423 487 45,000  Level FlightAware ADS-B
Wed 10:17:37 AM 42.2070 -82.3400 89° East 423 487 45,000  Level FlightAware ADS-B
Wed 10:18:27 AM 42.2080 -82.2110 89° East 422 486 45,000  Level FlightAware ADS-B
Wed 10:19:02 AM 42.2080 -82.1410 90° East 422 486 45,000  Level FlightAware ADS-B
Wed 10:19:52 AM 42.2090 -82.0080 89° East 422 486 45,000  Level FlightAware ADS-B
Wed 10:20:22 AM 42.2100 -81.9160 89° East 423 487 45,000  Level FlightAware ADS-B
Wed 10:21:12 AM 42.2100 -81.7850 90° East 423 487 45,000  Level FlightAware ADS-B
Wed 10:21:47 AM 42.2100 -81.6990 90° East 423 487 45,000  Level FlightAware ADS-B
Wed 10:22:32 AM 42.2110 -81.5750 89° East 423 487 45,000  Level FlightAware ADS-B
Wed 10:23:32 AM 42.2110 -81.4260 90° East 421 484 45,000  Level FlightAware ADS-B
Wed 10:24:12 AM 42.2110 -81.3030 90° East 421 484 45,000  Level FlightAware ADS-B
Wed 10:24:57 AM 42.2110 -81.1790 90° East 421 484 45,000  Level FlightAware ADS-B
Wed 10:25:37 AM 42.2090 -81.0770 91° East 421 484 45,000  Level FlightAware ADS-B
Wed 10:26:22 AM 42.1980 -80.9590 97° East 420 483 45,000  Level FlightAware ADS-B
Wed 10:27:02 AM 42.1890 -80.8580 97° East 421 484 45,000  Level FlightAware ADS-B
Wed 10:27:47 AM 42.1780 -80.7390 97° East 421 484 45,000  Level FlightAware ADS-B
Wed 10:28:27 AM 42.1680 -80.6360 97° East 421 484 45,000  Level FlightAware ADS-B
Wed 10:29:07 AM 42.1570 -80.5290 98° East 421 484 45,000  Level FlightAware ADS-B
Wed 10:29:52 AM 42.1460 -80.4130 97° East 421 484 45,000  Level FlightAware ADS-B
Wed 10:30:27 AM 42.1380 -80.3300 97° East 421 484 45,000  Level FlightAware ADS-B
Wed 10:31:12 AM 42.1250 -80.2050 98° East 421 484 45,000  Level FlightAware ADS-B
Wed 10:31:57 AM 42.1140 -80.0920 97° East 420 483 45,000  Level FlightAware ADS-B
Wed 10:32:52 AM 42.1010 -79.9630 98° East 420 483 45,000  Level FlightAware ADS-B
Wed 10:33:37 AM 42.0870 -79.8310 98° East 422 486 45,000  Level FlightAware ADS-B
Wed 10:34:17 AM 42.0760 -79.7260 98° East 422 486 45,000  Level FlightAware ADS-B
Wed 10:34:57 AM 42.0660 -79.6270 98° East 421 484 45,000  Level FlightAware ADS-B
Wed 10:35:42 AM 42.0540 -79.5110 98° East 421 484 45,000  Level FlightAware ADS-B
Wed 10:36:22 AM 42.0420 -79.4030 98° East 421 484 45,000  Level FlightAware ADS-B
Wed 10:37:07 AM 42.0300 -79.2880 98° East 421 484 45,000  Level FlightAware ADS-B
Wed 10:37:47 AM 42.0180 -79.1830 99° East 421 484 45,000  Level FlightAware ADS-B
Wed 10:38:27 AM 42.0070 -79.0770 98° East 421 484 45,000  Level FlightAware ADS-B
Wed 10:39:12 AM 41.9940 -78.9630 99° East 421 484 45,000  Level FlightAware ADS-B
Wed 10:39:52 AM 41.9820 -78.8570 99° East 421 484 45,000  Level FlightAware ADS-B
Wed 10:40:37 AM 41.9690 -78.7420 99° East 421 484 45,000  Level FlightAware ADS-B
Wed 10:41:17 AM 41.9580 -78.6380 98° East 422 486 45,000 -75 Level FlightAware ADS-B
Wed 10:41:57 AM 41.9460 -78.5380 99° East 419 482 44,900 -988 Descending FlightAware ADS-B
Wed 10:42:42 AM 41.9320 -78.4180 99° East 413 475 43,600 -1,765 Descending FlightAware ADS-B
Wed 10:43:22 AM 41.9210 -78.3250 99° East 410 472 42,400 -1,906 Descending FlightAware ADS-B
Wed 10:44:07 AM 41.9090 -78.2240 99° East 408 470 40,900 -2,259 Descending FlightAware ADS-B
Wed 10:44:47 AM 41.8960 -78.1080 99° East 407 468 39,200 -2,541 Descending FlightAware ADS-B
Wed 10:45:32 AM 41.8820 -77.9940 99° East 398 458 37,300 -2,200 Descending FlightAware ADS-B
Wed 10:46:17 AM 41.8710 -77.9010 99° East 383 441 35,900 -1,800 Descending FlightAware ADS-B
Wed 10:47:22 AM 41.8430 -77.7700 106° East 326 375 34,000 -1,860 Descending FlightAware ADS-B
Wed 10:47:57 AM 41.8250 -77.6990 109° East 330 380 32,800 -1,835 Descending FlightAware ADS-B
Wed 10:48:47 AM 41.7990 -77.6020 110° East 349 402 31,400 -1,200 Descending FlightAware ADS-B
Wed 10:49:27 AM 41.7760 -77.5170 110° East 358 412 31,000 -300 Descending FlightAware ADS-B
Wed 10:50:07 AM 41.7550 -77.4360 109° East 355 409 31,000  Level FlightAware ADS-B
Wed 10:50:52 AM 41.7290 -77.3380 110° East 352 405 31,000 -282 Level FlightAware ADS-B
Wed 10:51:32 AM 41.7090 -77.2630 110° East 354 407 30,600 -776 Descending FlightAware ADS-B
Wed 10:52:17 AM 41.6830 -77.1660 110° East 358 412 29,900 -988 Descending FlightAware ADS-B
Wed 10:52:57 AM 41.6600 -77.0830 110° East 361 415 29,200 -975 Descending FlightAware ADS-B
Wed 10:53:37 AM 41.6390 -77.0030 109° East 362 417 28,600 -988 Descending FlightAware ADS-B
Wed 10:54:22 AM 41.6120 -76.9050 110° East 366 421 27,800 -1,050 Descending FlightAware ADS-B
Wed 10:54:57 AM 41.5910 -76.8300 111° Southeast 368 423 27,200 -565 Descending FlightAware ADS-B
Wed 10:55:47 AM 41.5630 -76.7250 110° East 366 421 27,000 -133 Descending FlightAware ADS-B
Wed 10:56:27 AM 41.5400 -76.6410 110° East 368 423 27,000  Level FlightAware ADS-B
Wed 10:57:12 AM 41.5140 -76.5470 110° East 369 425 27,000  Level FlightAware ADS-B
Wed 10:58:07 AM 41.4800 -76.4270 111° Southeast 369 425 27,000  Level FlightAware ADS-B
Wed 10:58:37 AM 41.4630 -76.3630 109° East 368 423 27,000  Level FlightAware ADS-B
Wed 10:58:59 AM 41.4449 -76.2991 111° Southeast 369 425 27,000 -692 Level FlightAware ADS-B
Wed 10:59:29 AM 41.4269 -76.2346 110° East 374 430 26,400 -1,645 Descending FlightAware ADS-B
Wed 11:00:01 AM 41.4074 -76.1650 110° East 377 434 25,300 -1,973 Descending FlightAware ADS-B
Wed 11:00:42 AM 41.3825 -76.0763 110° East 376 433 24,000 -1,973 Descending FlightAware ADS-B
Wed 11:01:14 AM 41.3628 -76.0065 111° Southeast 372 428 22,900 -1,974 Descending FlightAware ADS-B
Wed 11:01:58 AM 41.3369 -75.9147 111° Southeast 361 415 21,500 -1,923 Descending FlightAware ADS-B
Wed 11:02:32 AM 41.3176 -75.8464 111° Southeast 343 395 20,400 -1,871 Descending FlightAware ADS-B
Wed 11:03:31 AM 41.2857 -75.7344 111° Southeast 322 371 18,600 -1,727 Descending FlightAware ADS-B
Wed 11:05:12 AM 41.2320 -75.5650 113° Southeast 15,800 -1,685 Descending FlightAware ADS-B
Wed 11:05:57 AM 41.2040 -75.4820 114° Southeast 318 366 14,500 -1,768 Descending FlightAware ADS-B
Wed 11:06:47 AM 41.1760 -75.4010 115° Southeast 267 307 13,000 -1,694 Descending FlightAware ADS-B
Wed 11:07:22 AM 41.1590 -75.3490 113° Southeast 255 293 12,100 -1,650 Descending FlightAware ADS-B
Wed 11:08:07 AM 41.1360 -75.2800 114° Southeast 267 307 10,800 -1,667 Descending FlightAware ADS-B
Wed 11:08:52 AM 41.1130 -75.2120 114° Southeast 256 295 9,600 -1,527 Descending FlightAware ADS-B
Wed 11:09:02 AM 41.1090 -75.2010 116° Southeast 256 295 9,400 -343 Descending FlightAware ADS-B
Wed 11:09:27 AM 41.0970 -75.1660 114° Southeast 256 295 9,400  Level FlightAware ADS-B
Wed 11:09:47 AM 41.0890 -75.1420 114° Southeast 256 295 9,400  Level FlightAware ADS-B
Wed 11:10:07 AM 41.0810 -75.1180 114° Southeast 256 295 9,400  Level FlightAware ADS-B
Wed 11:10:37 AM 41.0690 -75.0810 113° Southeast 256 295 9,400 -2,300 Level FlightAware ADS-B
Wed 11:11:07 AM 41.0533 -75.0358 113° Southeast 247 284 7,100 -1,026 Descending New York Center
Wed 11:16:57 AM 40.8580 -74.5880 113° Southeast 238 274 2,900 -663 Descending FlightAware ADS-B
Wed 11:17:27 AM 40.8410 -74.5490 120° Southeast 237 273 2,900  Level FlightAware ADS-B
Wed 11:17:39 AM 40.8330 -74.5328 123° Southeast 232 267 2,900  Level FlightAware ADS-B
Wed 11:17:58 AM 40.8222 -74.5094 121° Southeast 233 268 2,900  Level FlightAware ADS-B
Wed 11:18:24 AM 40.8075 -74.4769 121° Southeast 241 277 2,900  Level FlightAware ADS-B
Wed 11:18:40 AM 40.7980 -74.4562 121° Southeast 247 284 2,900 -82 Level FlightAware ADS-B
Wed 11:19:37 AM 40.7680 -74.3910 121° Southeast 214 246 2,800 -329 Descending FlightAware ADS-B
Wed 11:19:53 AM 40.7579 -74.3697 122° Southeast 247 284 2,500 -1,059 Descending FlightAware ADS-B
Wed 11:20:11 AM 40.7495 -74.3514 121° Southeast 193 222 2,200 -882 Descending FlightAware ADS-B
Wed 11:20:27 AM 40.7423 -74.3359 122° Southeast 189 217 2,000 -545 Descending FlightAware ADS-B
Wed 11:20:44 AM 40.7346 -74.3187 121° Southeast 192 221 1,900 -200 Descending FlightAware ADS-B
Wed 11:20:57 AM 40.7309 -74.3043 109° East 192 221 1,900  Level FlightAware ADS-B
Wed 11:21:12 AM 40.7333 -74.2879 79° East 184 212 1,900  Level FlightAware ADS-B
Wed 11:21:27 AM 40.7365 -74.2712 76° East 185 213 1,900  Level FlightAware ADS-B
Wed 11:21:43 AM 40.7400 -74.2542 75° East 188 216 1,900  Level FlightAware ADS-B
Wed 11:21:58 AM 40.7435 -74.2372 75° East 193 222 1,900  Level FlightAware ADS-B
Wed 11:22:08 AM 40.7458 -74.2258 75° East 194 223 1,900  Level FlightAware ADS-B
Wed 11:22:16 AM 40.7482 -74.2172 70° East 197 227 1,900 -500 Level FlightAware ADS-B
Wed 11:22:20 AM 40.7502 -74.2129 58° Northeast 199 229 1,800 -750 Descending FlightAware ADS-B
Wed 11:22:24 AM 40.7527 -74.2088 51° Northeast 200 230 1,800 -783 Level FlightAware ADS-B
Wed 11:22:43 AM 40.7643 -74.1916 48° Northeast 197 227 1,500 -889 Descending FlightAware ADS-B
Wed 11:22:51 AM 40.7690 -74.1844 49° Northeast 186 214 1,400 -300 Descending FlightAware ADS-B
Wed 11:23:03 AM 40.7758 -74.1748 47° Northeast 176 203 1,400  Level FlightAware ADS-B
Wed 11:23:18 AM 40.7834 -74.1631 49° Northeast 172 198 1,400  Level FlightAware ADS-B
Wed 11:23:46 AM 40.7977 -74.1418 48° Northeast 171 197 1,400 -293 Level FlightAware ADS-B
Wed 11:23:59 AM 40.8045 -74.1322 47° Northeast 156 180 1,200 -808 Descending FlightAware ADS-B
Wed 11:24:38 AM 40.8211 -74.1080 48° Northeast 120 138 700 -750 Descending FlightAware ADS-B
Wed 11:24:47 AM 40.8243 -74.1032 49° Northeast 116 133 600 -667 Descending FlightAware ADS-B
Wed 11:24:56 AM 40.8274 -74.0984 50° Northeast 115 132 500 -706 Descending FlightAware ADS-B
Wed 11:25:04 AM 40.8306 -74.0939 47° Northeast 113 130 400 -643 Descending FlightAware ADS-B
Wed 11:25:24 AM 40.8373 -74.0841 48° Northeast 110 127 200 -486 Descending FlightAware ADS-B
Wed 11:25:41 AM 40.8429 -74.0759 48° Northeast 106 122 100 -353 Descending FlightAware ADS-B

Login

Don't have an account? Register now (free) for customized features, flight alerts, and more!